sensor_id;sensor_type;location;lat;lon;timestamp;P1;durP1;ratioP1;P2;durP2;ratioP2
53533;SDS011;39421;53.204;6.568;2022-08-19T00:00:06;8.07;;;5.43;;
53533;SDS011;39421;53.204;6.568;2022-08-19T00:02:35;7.57;;;5.20;;
53533;SDS011;39421;53.204;6.568;2022-08-19T00:05:01;6.43;;;5.10;;
53533;SDS011;39421;53.204;6.568;2022-08-19T00:07:28;6.53;;;4.90;;
53533;SDS011;39421;53.204;6.568;2022-08-19T00:09:54;8.47;;;5.33;;
53533;SDS011;39421;53.204;6.568;2022-08-19T00:12:19;7.40;;;4.97;;
53533;SDS011;39421;53.204;6.568;2022-08-19T00:14:45;8.60;;;5.35;;
53533;SDS011;39421;53.204;6.568;2022-08-19T00:17:11;7.53;;;5.38;;
53533;SDS011;39421;53.204;6.568;2022-08-19T00:19:38;7.57;;;4.73;;
53533;SDS011;39421;53.204;6.568;2022-08-19T00:22:04;6.97;;;5.07;;
53533;SDS011;39421;53.204;6.568;2022-08-19T00:24:31;6.43;;;4.75;;
53533;SDS011;39421;53.204;6.568;2022-08-19T00:26:57;6.20;;;5.25;;
53533;SDS011;39421;53.204;6.568;2022-08-19T00:29:23;6.50;;;4.80;;
53533;SDS011;39421;53.204;6.568;2022-08-19T00:31:50;6.05;;;4.97;;
53533;SDS011;39421;53.204;6.568;2022-08-19T00:34:20;6.82;;;5.05;;
53533;SDS011;39421;53.204;6.568;2022-08-19T00:36:47;7.05;;;5.18;;
53533;SDS011;39421;53.204;6.568;2022-08-19T00:39:13;7.13;;;5.32;;
53533;SDS011;39421;53.204;6.568;2022-08-19T00:41:40;7.32;;;4.95;;
53533;SDS011;39421;53.204;6.568;2022-08-19T00:44:15;7.28;;;5.05;;
53533;SDS011;39421;53.204;6.568;2022-08-19T00:46:42;5.72;;;5.13;;
53533;SDS011;39421;53.204;6.568;2022-08-19T00:49:11;6.82;;;4.95;;
53533;SDS011;39421;53.204;6.568;2022-08-19T00:51:53;5.80;;;4.97;;
53533;SDS011;39421;53.204;6.568;2022-08-19T00:54:25;6.78;;;4.82;;
53533;SDS011;39421;53.204;6.568;2022-08-19T00:56:51;6.25;;;5.18;;
53533;SDS011;39421;53.204;6.568;2022-08-19T00:59:18;7.10;;;5.10;;
53533;SDS011;39421;53.204;6.568;2022-08-19T01:01:45;9.05;;;5.05;;
53533;SDS011;39421;53.204;6.568;2022-08-19T01:04:12;5.88;;;4.60;;
53533;SDS011;39421;53.204;6.568;2022-08-19T01:06:38;6.90;;;5.20;;
53533;SDS011;39421;53.204;6.568;2022-08-19T01:09:06;7.03;;;5.00;;
53533;SDS011;39421;53.204;6.568;2022-08-19T01:11:34;6.25;;;5.00;;
53533;SDS011;39421;53.204;6.568;2022-08-19T01:14:03;7.10;;;4.93;;
53533;SDS011;39421;53.204;6.568;2022-08-19T01:16:30;7.32;;;5.20;;
53533;SDS011;39421;53.204;6.568;2022-08-19T01:18:58;6.68;;;5.20;;
53533;SDS011;39421;53.204;6.568;2022-08-19T01:21:28;8.23;;;5.40;;
53533;SDS011;39421;53.204;6.568;2022-08-19T01:23:59;6.60;;;5.10;;
53533;SDS011;39421;53.204;6.568;2022-08-19T01:26:25;7.03;;;5.47;;
53533;SDS011;39421;53.204;6.568;2022-08-19T01:28:53;9.10;;;6.57;;
53533;SDS011;39421;53.204;6.568;2022-08-19T01:31:22;9.25;;;5.97;;
53533;SDS011;39421;53.204;6.568;2022-08-19T01:33:50;8.57;;;6.68;;
53533;SDS011;39421;53.204;6.568;2022-08-19T01:38:50;9.32;;;7.07;;
53533;SDS011;39421;53.204;6.568;2022-08-19T01:41:17;9.35;;;6.55;;
53533;SDS011;39421;53.204;6.568;2022-08-19T01:43:43;8.52;;;6.10;;
53533;SDS011;39421;53.204;6.568;2022-08-19T01:46:09;9.75;;;6.25;;
53533;SDS011;39421;53.204;6.568;2022-08-19T01:48:36;9.15;;;6.60;;
53533;SDS011;39421;53.204;6.568;2022-08-19T01:51:03;9.75;;;7.18;;
53533;SDS011;39421;53.204;6.568;2022-08-19T01:53:29;8.55;;;7.03;;
53533;SDS011;39421;53.204;6.568;2022-08-19T01:55:55;9.63;;;7.05;;
53533;SDS011;39421;53.204;6.568;2022-08-19T01:58:22;8.05;;;6.38;;
53533;SDS011;39421;53.204;6.568;2022-08-19T02:00:51;9.63;;;6.63;;
53533;SDS011;39421;53.204;6.568;2022-08-19T02:03:17;8.93;;;7.10;;
53533;SDS011;39421;53.204;6.568;2022-08-19T02:05:43;7.95;;;6.50;;
53533;SDS011;39421;53.204;6.568;2022-08-19T02:08:09;9.88;;;7.07;;
53533;SDS011;39421;53.204;6.568;2022-08-19T02:10:38;10.47;;;7.20;;
53533;SDS011;39421;53.204;6.568;2022-08-19T02:13:06;9.88;;;7.28;;
53533;SDS011;39421;53.204;6.568;2022-08-19T02:15:32;9.02;;;6.82;;
53533;SDS011;39421;53.204;6.568;2022-08-19T02:17:58;9.77;;;6.85;;
53533;SDS011;39421;53.204;6.568;2022-08-19T02:20:24;9.13;;;6.70;;
53533;SDS011;39421;53.204;6.568;2022-08-19T02:22:50;9.38;;;7.03;;
53533;SDS011;39421;53.204;6.568;2022-08-19T02:25:15;9.90;;;7.18;;
53533;SDS011;39421;53.204;6.568;2022-08-19T02:27:41;9.82;;;7.43;;
53533;SDS011;39421;53.204;6.568;2022-08-19T02:30:09;9.95;;;7.82;;
53533;SDS011;39421;53.204;6.568;2022-08-19T02:32:37;10.07;;;7.47;;
53533;SDS011;39421;53.204;6.568;2022-08-19T02:35:04;9.27;;;6.88;;
53533;SDS011;39421;53.204;6.568;2022-08-19T02:37:30;9.67;;;6.77;;
53533;SDS011;39421;53.204;6.568;2022-08-19T02:40:14;9.88;;;7.07;;
53533;SDS011;39421;53.204;6.568;2022-08-19T02:42:42;7.95;;;6.35;;
53533;SDS011;39421;53.204;6.568;2022-08-19T02:45:08;9.57;;;6.63;;
53533;SDS011;39421;53.204;6.568;2022-08-19T02:47:34;10.07;;;6.55;;
53533;SDS011;39421;53.204;6.568;2022-08-19T02:50:01;11.20;;;6.60;;
53533;SDS011;39421;53.204;6.568;2022-08-19T02:52:27;9.57;;;6.57;;
53533;SDS011;39421;53.204;6.568;2022-08-19T02:54:53;8.37;;;6.30;;
53533;SDS011;39421;53.204;6.568;2022-08-19T02:57:22;8.60;;;6.32;;
53533;SDS011;39421;53.204;6.568;2022-08-19T02:59:49;8.43;;;6.53;;
53533;SDS011;39421;53.204;6.568;2022-08-19T03:02:15;8.80;;;6.72;;
53533;SDS011;39421;53.204;6.568;2022-08-19T03:04:41;10.82;;;6.78;;
53533;SDS011;39421;53.204;6.568;2022-08-19T03:07:07;7.88;;;5.75;;
53533;SDS011;39421;53.204;6.568;2022-08-19T03:09:36;9.98;;;6.70;;
53533;SDS011;39421;53.204;6.568;2022-08-19T03:12:03;9.23;;;6.20;;
53533;SDS011;39421;53.204;6.568;2022-08-19T03:14:30;8.57;;;6.63;;
53533;SDS011;39421;53.204;6.568;2022-08-19T03:16:57;10.38;;;6.88;;
53533;SDS011;39421;53.204;6.568;2022-08-19T03:19:23;8.60;;;6.50;;
53533;SDS011;39421;53.204;6.568;2022-08-19T03:21:49;10.07;;;6.70;;
53533;SDS011;39421;53.204;6.568;2022-08-19T03:24:16;8.13;;;5.65;;
53533;SDS011;39421;53.204;6.568;2022-08-19T03:26:48;7.72;;;5.75;;
53533;SDS011;39421;53.204;6.568;2022-08-19T03:29:16;9.18;;;5.78;;
53533;SDS011;39421;53.204;6.568;2022-08-19T03:31:43;7.70;;;5.70;;
53533;SDS011;39421;53.204;6.568;2022-08-19T03:34:13;8.38;;;5.95;;
53533;SDS011;39421;53.204;6.568;2022-08-19T03:36:42;8.00;;;6.10;;
53533;SDS011;39421;53.204;6.568;2022-08-19T03:39:09;8.80;;;5.72;;
53533;SDS011;39421;53.204;6.568;2022-08-19T03:41:37;9.65;;;6.20;;
53533;SDS011;39421;53.204;6.568;2022-08-19T03:44:05;7.95;;;5.90;;
53533;SDS011;39421;53.204;6.568;2022-08-19T03:46:32;9.32;;;5.97;;
53533;SDS011;39421;53.204;6.568;2022-08-19T03:48:59;9.23;;;6.28;;
53533;SDS011;39421;53.204;6.568;2022-08-19T03:51:38;8.73;;;6.15;;
53533;SDS011;39421;53.204;6.568;2022-08-19T03:54:06;8.52;;;6.03;;
53533;SDS011;39421;53.204;6.568;2022-08-19T03:56:34;9.27;;;5.97;;
53533;SDS011;39421;53.204;6.568;2022-08-19T03:59:01;8.52;;;6.45;;
53533;SDS011;39421;53.204;6.568;2022-08-19T04:01:28;8.05;;;6.07;;
53533;SDS011;39421;53.204;6.568;2022-08-19T04:03:55;8.75;;;6.57;;
53533;SDS011;39421;53.204;6.568;2022-08-19T04:06:22;8.77;;;6.30;;
53533;SDS011;39421;53.204;6.568;2022-08-19T04:08:50;10.30;;;7.00;;
53533;SDS011;39421;53.204;6.568;2022-08-19T04:11:20;10.70;;;7.28;;
53533;SDS011;39421;53.204;6.568;2022-08-19T04:13:48;8.27;;;6.40;;
53533;SDS011;39421;53.204;6.568;2022-08-19T04:16:18;10.73;;;6.32;;
53533;SDS011;39421;53.204;6.568;2022-08-19T04:18:45;8.93;;;6.63;;
53533;SDS011;39421;53.204;6.568;2022-08-19T04:21:15;8.80;;;6.28;;
53533;SDS011;39421;53.204;6.568;2022-08-19T04:23:42;9.15;;;6.82;;
53533;SDS011;39421;53.204;6.568;2022-08-19T04:26:11;9.13;;;6.25;;
53533;SDS011;39421;53.204;6.568;2022-08-19T04:28:43;8.65;;;6.47;;
53533;SDS011;39421;53.204;6.568;2022-08-19T04:31:14;9.23;;;6.47;;
53533;SDS011;39421;53.204;6.568;2022-08-19T04:33:42;8.65;;;6.40;;
53533;SDS011;39421;53.204;6.568;2022-08-19T04:36:08;9.07;;;6.47;;
53533;SDS011;39421;53.204;6.568;2022-08-19T04:38:47;8.93;;;6.85;;
53533;SDS011;39421;53.204;6.568;2022-08-19T04:41:13;9.23;;;6.20;;
53533;SDS011;39421;53.204;6.568;2022-08-19T04:43:57;10.20;;;7.10;;
53533;SDS011;39421;53.204;6.568;2022-08-19T04:46:23;10.20;;;7.10;;
53533;SDS011;39421;53.204;6.568;2022-08-19T04:48:48;11.20;;;7.22;;
53533;SDS011;39421;53.204;6.568;2022-08-19T04:51:14;9.73;;;7.35;;
53533;SDS011;39421;53.204;6.568;2022-08-19T04:53:40;11.07;;;7.63;;
53533;SDS011;39421;53.204;6.568;2022-08-19T04:56:11;11.75;;;7.40;;
53533;SDS011;39421;53.204;6.568;2022-08-19T04:58:40;11.90;;;8.05;;
53533;SDS011;39421;53.204;6.568;2022-08-19T05:01:07;14.13;;;7.33;;
53533;SDS011;39421;53.204;6.568;2022-08-19T05:03:37;14.30;;;8.27;;
53533;SDS011;39421;53.204;6.568;2022-08-19T05:06:07;14.80;;;8.23;;
53533;SDS011;39421;53.204;6.568;2022-08-19T05:08:38;11.73;;;8.10;;
53533;SDS011;39421;53.204;6.568;2022-08-19T05:11:13;13.10;;;8.35;;
53533;SDS011;39421;53.204;6.568;2022-08-19T05:13:51;11.63;;;7.15;;
53533;SDS011;39421;53.204;6.568;2022-08-19T05:16:18;11.93;;;7.45;;
53533;SDS011;39421;53.204;6.568;2022-08-19T05:18:46;11.57;;;8.10;;
53533;SDS011;39421;53.204;6.568;2022-08-19T05:21:32;13.57;;;8.48;;
53533;SDS011;39421;53.204;6.568;2022-08-19T05:24:17;13.65;;;8.55;;
53533;SDS011;39421;53.204;6.568;2022-08-19T05:26:46;14.43;;;9.38;;
53533;SDS011;39421;53.204;6.568;2022-08-19T05:29:17;14.10;;;9.30;;
53533;SDS011;39421;53.204;6.568;2022-08-19T05:31:45;14.38;;;9.10;;
53533;SDS011;39421;53.204;6.568;2022-08-19T05:34:12;15.23;;;9.50;;
53533;SDS011;39421;53.204;6.568;2022-08-19T05:36:39;14.57;;;9.32;;
53533;SDS011;39421;53.204;6.568;2022-08-19T05:39:07;14.00;;;9.38;;
53533;SDS011;39421;53.204;6.568;2022-08-19T05:41:35;12.35;;;8.73;;
53533;SDS011;39421;53.204;6.568;2022-08-19T05:44:03;13.05;;;8.88;;
53533;SDS011;39421;53.204;6.568;2022-08-19T05:46:31;16.13;;;9.15;;
53533;SDS011;39421;53.204;6.568;2022-08-19T05:48:57;13.80;;;8.65;;
53533;SDS011;39421;53.204;6.568;2022-08-19T05:51:24;12.77;;;8.75;;
53533;SDS011;39421;53.204;6.568;2022-08-19T05:53:50;14.77;;;9.82;;
53533;SDS011;39421;53.204;6.568;2022-08-19T05:56:16;14.73;;;9.70;;
53533;SDS011;39421;53.204;6.568;2022-08-19T05:58:43;13.73;;;9.45;;
53533;SDS011;39421;53.204;6.568;2022-08-19T06:01:11;13.97;;;10.30;;
53533;SDS011;39421;53.204;6.568;2022-08-19T06:03:39;13.88;;;9.60;;
53533;SDS011;39421;53.204;6.568;2022-08-19T06:06:05;12.13;;;8.40;;
53533;SDS011;39421;53.204;6.568;2022-08-19T06:08:33;14.38;;;8.68;;
53533;SDS011;39421;53.204;6.568;2022-08-19T06:11:11;11.88;;;8.82;;
53533;SDS011;39421;53.204;6.568;2022-08-19T06:13:49;14.77;;;9.05;;
53533;SDS011;39421;53.204;6.568;2022-08-19T06:16:20;14.23;;;8.82;;
53533;SDS011;39421;53.204;6.568;2022-08-19T06:18:47;12.15;;;8.48;;
53533;SDS011;39421;53.204;6.568;2022-08-19T06:21:17;11.57;;;8.70;;
53533;SDS011;39421;53.204;6.568;2022-08-19T06:23:45;11.02;;;7.53;;
53533;SDS011;39421;53.204;6.568;2022-08-19T06:26:12;12.25;;;8.40;;
53533;SDS011;39421;53.204;6.568;2022-08-19T06:28:40;11.52;;;7.82;;
53533;SDS011;39421;53.204;6.568;2022-08-19T06:31:12;10.63;;;7.43;;
53533;SDS011;39421;53.204;6.568;2022-08-19T06:33:42;10.38;;;7.60;;
53533;SDS011;39421;53.204;6.568;2022-08-19T06:36:24;11.17;;;8.00;;
53533;SDS011;39421;53.204;6.568;2022-08-19T06:38:55;12.43;;;8.00;;
53533;SDS011;39421;53.204;6.568;2022-08-19T06:41:22;11.07;;;7.40;;
53533;SDS011;39421;53.204;6.568;2022-08-19T06:43:53;11.40;;;7.27;;
53533;SDS011;39421;53.204;6.568;2022-08-19T06:46:22;10.65;;;7.28;;
53533;SDS011;39421;53.204;6.568;2022-08-19T06:48:48;11.68;;;7.47;;
53533;SDS011;39421;53.204;6.568;2022-08-19T06:51:15;11.77;;;7.38;;
53533;SDS011;39421;53.204;6.568;2022-08-19T06:53:46;10.90;;;6.95;;
53533;SDS011;39421;53.204;6.568;2022-08-19T06:56:13;9.88;;;6.70;;
53533;SDS011;39421;53.204;6.568;2022-08-19T06:58:40;9.98;;;7.30;;
53533;SDS011;39421;53.204;6.568;2022-08-19T07:01:06;10.00;;;6.90;;
53533;SDS011;39421;53.204;6.568;2022-08-19T07:03:33;12.93;;;7.30;;
53533;SDS011;39421;53.204;6.568;2022-08-19T07:06:07;10.82;;;7.22;;
53533;SDS011;39421;53.204;6.568;2022-08-19T07:08:35;10.32;;;6.95;;
53533;SDS011;39421;53.204;6.568;2022-08-19T07:11:06;12.13;;;6.57;;
53533;SDS011;39421;53.204;6.568;2022-08-19T07:13:33;9.80;;;6.68;;
53533;SDS011;39421;53.204;6.568;2022-08-19T07:16:07;11.65;;;6.82;;
53533;SDS011;39421;53.204;6.568;2022-08-19T07:18:37;9.60;;;7.13;;
53533;SDS011;39421;53.204;6.568;2022-08-19T07:21:07;10.00;;;6.60;;
53533;SDS011;39421;53.204;6.568;2022-08-19T07:23:37;10.13;;;6.70;;
53533;SDS011;39421;53.204;6.568;2022-08-19T07:26:11;8.97;;;7.27;;
53533;SDS011;39421;53.204;6.568;2022-08-19T07:28:48;11.10;;;6.43;;
53533;SDS011;39421;53.204;6.568;2022-08-19T07:31:16;10.75;;;7.30;;
53533;SDS011;39421;53.204;6.568;2022-08-19T07:33:45;8.98;;;6.93;;
53533;SDS011;39421;53.204;6.568;2022-08-19T07:36:13;10.80;;;7.38;;
53533;SDS011;39421;53.204;6.568;2022-08-19T07:38:43;10.85;;;7.30;;
53533;SDS011;39421;53.204;6.568;2022-08-19T07:41:12;11.77;;;7.40;;
53533;SDS011;39421;53.204;6.568;2022-08-19T07:43:41;9.07;;;6.53;;
53533;SDS011;39421;53.204;6.568;2022-08-19T07:46:08;13.10;;;7.38;;
53533;SDS011;39421;53.204;6.568;2022-08-19T07:48:35;10.10;;;6.78;;
53533;SDS011;39421;53.204;6.568;2022-08-19T07:51:03;9.50;;;6.60;;
53533;SDS011;39421;53.204;6.568;2022-08-19T07:53:30;10.00;;;6.30;;
53533;SDS011;39421;53.204;6.568;2022-08-19T07:55:58;8.93;;;6.32;;
53533;SDS011;39421;53.204;6.568;2022-08-19T07:58:27;13.77;;;7.65;;
53533;SDS011;39421;53.204;6.568;2022-08-19T08:00:53;9.20;;;6.40;;
53533;SDS011;39421;53.204;6.568;2022-08-19T08:03:21;9.13;;;6.43;;
53533;SDS011;39421;53.204;6.568;2022-08-19T08:06:07;9.85;;;7.15;;
53533;SDS011;39421;53.204;6.568;2022-08-19T08:08:51;8.93;;;6.17;;
53533;SDS011;39421;53.204;6.568;2022-08-19T08:11:36;11.38;;;7.32;;
53533;SDS011;39421;53.204;6.568;2022-08-19T08:14:14;8.13;;;6.38;;
53533;SDS011;39421;53.204;6.568;2022-08-19T08:16:42;11.47;;;7.37;;
53533;SDS011;39421;53.204;6.568;2022-08-19T08:19:10;9.67;;;6.63;;
53533;SDS011;39421;53.204;6.568;2022-08-19T08:21:40;9.43;;;7.30;;
53533;SDS011;39421;53.204;6.568;2022-08-19T08:24:06;8.73;;;6.82;;
53533;SDS011;39421;53.204;6.568;2022-08-19T08:26:32;9.13;;;6.27;;
53533;SDS011;39421;53.204;6.568;2022-08-19T08:28:58;12.23;;;6.47;;
53533;SDS011;39421;53.204;6.568;2022-08-19T08:31:23;10.70;;;6.53;;
53533;SDS011;39421;53.204;6.568;2022-08-19T08:33:49;7.68;;;6.07;;
53533;SDS011;39421;53.204;6.568;2022-08-19T08:38:53;9.85;;;6.72;;
53533;SDS011;39421;53.204;6.568;2022-08-19T08:41:29;10.77;;;7.03;;
53533;SDS011;39421;53.204;6.568;2022-08-19T08:44:20;10.43;;;6.70;;
53533;SDS011;39421;53.204;6.568;2022-08-19T08:47:17;10.27;;;6.35;;
53533;SDS011;39421;53.204;6.568;2022-08-19T08:49:48;7.75;;;6.20;;
53533;SDS011;39421;53.204;6.568;2022-08-19T08:54:50;9.38;;;6.93;;
53533;SDS011;39421;53.204;6.568;2022-08-19T08:57:22;9.48;;;7.70;;
53533;SDS011;39421;53.204;6.568;2022-08-19T09:00:10;10.07;;;7.35;;
53533;SDS011;39421;53.204;6.568;2022-08-19T09:02:41;9.90;;;7.72;;
53533;SDS011;39421;53.204;6.568;2022-08-19T09:05:08;10.18;;;6.35;;
53533;SDS011;39421;53.204;6.568;2022-08-19T09:07:44;10.15;;;7.20;;
53533;SDS011;39421;53.204;6.568;2022-08-19T09:10:44;9.38;;;7.10;;
53533;SDS011;39421;53.204;6.568;2022-08-19T09:13:31;10.65;;;8.23;;
53533;SDS011;39421;53.204;6.568;2022-08-19T09:16:19;11.23;;;7.97;;
53533;SDS011;39421;53.204;6.568;2022-08-19T09:18:53;16.52;;;9.48;;
53533;SDS011;39421;53.204;6.568;2022-08-19T09:21:23;10.85;;;8.55;;
53533;SDS011;39421;53.204;6.568;2022-08-19T09:23:50;10.50;;;8.38;;
53533;SDS011;39421;53.204;6.568;2022-08-19T09:26:17;14.40;;;8.85;;
53533;SDS011;39421;53.204;6.568;2022-08-19T09:28:46;11.82;;;8.95;;
53533;SDS011;39421;53.204;6.568;2022-08-19T09:31:14;13.77;;;8.57;;
53533;SDS011;39421;53.204;6.568;2022-08-19T09:33:41;15.27;;;8.50;;
53533;SDS011;39421;53.204;6.568;2022-08-19T09:36:09;10.68;;;8.55;;
53533;SDS011;39421;53.204;6.568;2022-08-19T09:38:37;12.25;;;9.27;;
53533;SDS011;39421;53.204;6.568;2022-08-19T09:41:07;12.10;;;9.25;;
53533;SDS011;39421;53.204;6.568;2022-08-19T09:43:41;12.20;;;8.97;;
53533;SDS011;39421;53.204;6.568;2022-08-19T09:46:10;12.40;;;8.53;;
53533;SDS011;39421;53.204;6.568;2022-08-19T09:48:36;11.18;;;8.30;;
53533;SDS011;39421;53.204;6.568;2022-08-19T09:51:07;11.43;;;8.57;;
53533;SDS011;39421;53.204;6.568;2022-08-19T09:53:35;11.18;;;8.50;;
53533;SDS011;39421;53.204;6.568;2022-08-19T09:56:02;26.40;;;10.63;;
53533;SDS011;39421;53.204;6.568;2022-08-19T09:58:29;10.67;;;8.80;;
53533;SDS011;39421;53.204;6.568;2022-08-19T10:00:55;13.90;;;9.32;;
53533;SDS011;39421;53.204;6.568;2022-08-19T10:03:23;10.80;;;9.05;;
53533;SDS011;39421;53.204;6.568;2022-08-19T10:05:49;12.43;;;9.23;;
53533;SDS011;39421;53.204;6.568;2022-08-19T10:08:19;10.33;;;8.93;;
53533;SDS011;39421;53.204;6.568;2022-08-19T10:11:12;11.57;;;8.95;;
53533;SDS011;39421;53.204;6.568;2022-08-19T10:13:41;11.85;;;9.30;;
53533;SDS011;39421;53.204;6.568;2022-08-19T10:16:09;12.10;;;10.18;;
53533;SDS011;39421;53.204;6.568;2022-08-19T10:18:37;12.38;;;9.45;;
53533;SDS011;39421;53.204;6.568;2022-08-19T10:21:13;13.65;;;9.35;;
53533;SDS011;39421;53.204;6.568;2022-08-19T10:23:45;11.90;;;8.38;;
53533;SDS011;39421;53.204;6.568;2022-08-19T10:26:16;11.88;;;8.55;;
53533;SDS011;39421;53.204;6.568;2022-08-19T10:28:45;12.20;;;8.43;;
53533;SDS011;39421;53.204;6.568;2022-08-19T10:31:15;10.57;;;8.70;;
53533;SDS011;39421;53.204;6.568;2022-08-19T10:33:44;14.90;;;8.65;;
53533;SDS011;39421;53.204;6.568;2022-08-19T10:36:13;13.00;;;9.00;;
53533;SDS011;39421;53.204;6.568;2022-08-19T10:38:45;11.15;;;8.35;;
53533;SDS011;39421;53.204;6.568;2022-08-19T10:41:21;9.52;;;8.13;;
53533;SDS011;39421;53.204;6.568;2022-08-19T10:43:53;11.25;;;8.57;;
53533;SDS011;39421;53.204;6.568;2022-08-19T10:46:22;10.77;;;7.93;;
53533;SDS011;39421;53.204;6.568;2022-08-19T10:48:49;12.27;;;9.25;;
53533;SDS011;39421;53.204;6.568;2022-08-19T10:51:16;10.70;;;8.38;;
53533;SDS011;39421;53.204;6.568;2022-08-19T10:54:01;11.50;;;9.18;;
53533;SDS011;39421;53.204;6.568;2022-08-19T10:56:28;9.50;;;7.60;;
53533;SDS011;39421;53.204;6.568;2022-08-19T10:59:13;11.63;;;9.07;;
53533;SDS011;39421;53.204;6.568;2022-08-19T11:01:40;13.50;;;7.93;;
53533;SDS011;39421;53.204;6.568;2022-08-19T11:04:08;7.80;;;6.65;;
53533;SDS011;39421;53.204;6.568;2022-08-19T11:06:36;9.25;;;7.28;;
53533;SDS011;39421;53.204;6.568;2022-08-19T11:09:03;9.25;;;7.38;;
53533;SDS011;39421;53.204;6.568;2022-08-19T11:11:30;9.15;;;7.25;;
53533;SDS011;39421;53.204;6.568;2022-08-19T11:13:57;12.80;;;9.60;;
53533;SDS011;39421;53.204;6.568;2022-08-19T11:16:24;9.98;;;8.98;;
53533;SDS011;39421;53.204;6.568;2022-08-19T11:18:52;12.10;;;9.48;;
53533;SDS011;39421;53.204;6.568;2022-08-19T11:21:22;11.85;;;8.93;;
53533;SDS011;39421;53.204;6.568;2022-08-19T11:23:50;11.32;;;8.75;;
53533;SDS011;39421;53.204;6.568;2022-08-19T11:26:18;13.98;;;9.73;;
53533;SDS011;39421;53.204;6.568;2022-08-19T11:28:46;12.73;;;8.80;;
53533;SDS011;39421;53.204;6.568;2022-08-19T11:31:16;11.73;;;9.25;;
53533;SDS011;39421;53.204;6.568;2022-08-19T11:33:44;10.75;;;7.55;;
53533;SDS011;39421;53.204;6.568;2022-08-19T11:36:11;10.52;;;8.50;;
53533;SDS011;39421;53.204;6.568;2022-08-19T11:38:37;11.27;;;8.30;;
53533;SDS011;39421;53.204;6.568;2022-08-19T11:41:04;12.80;;;8.93;;
53533;SDS011;39421;53.204;6.568;2022-08-19T11:43:35;9.15;;;7.57;;
53533;SDS011;39421;53.204;6.568;2022-08-19T11:46:08;9.82;;;8.32;;
53533;SDS011;39421;53.204;6.568;2022-08-19T11:48:35;9.77;;;8.77;;
53533;SDS011;39421;53.204;6.568;2022-08-19T11:51:05;11.85;;;9.70;;
53533;SDS011;39421;53.204;6.568;2022-08-19T11:53:34;11.55;;;9.50;;
53533;SDS011;39421;53.204;6.568;2022-08-19T11:56:00;10.50;;;9.05;;
53533;SDS011;39421;53.204;6.568;2022-08-19T11:58:27;9.85;;;7.60;;
53533;SDS011;39421;53.204;6.568;2022-08-19T12:00:54;12.57;;;9.70;;
53533;SDS011;39421;53.204;6.568;2022-08-19T12:03:20;10.35;;;9.05;;
53533;SDS011;39421;53.204;6.568;2022-08-19T12:05:46;10.32;;;8.63;;
53533;SDS011;39421;53.204;6.568;2022-08-19T12:08:12;10.73;;;9.60;;
53533;SDS011;39421;53.204;6.568;2022-08-19T12:10:38;11.82;;;10.02;;
53533;SDS011;39421;53.204;6.568;2022-08-19T12:13:06;11.77;;;9.98;;
53533;SDS011;39421;53.204;6.568;2022-08-19T12:15:38;12.05;;;9.88;;
53533;SDS011;39421;53.204;6.568;2022-08-19T12:18:06;10.18;;;8.68;;
53533;SDS011;39421;53.204;6.568;2022-08-19T12:20:36;12.57;;;9.60;;
53533;SDS011;39421;53.204;6.568;2022-08-19T12:23:05;11.20;;;9.20;;
53533;SDS011;39421;53.204;6.568;2022-08-19T12:25:32;13.60;;;9.23;;
53533;SDS011;39421;53.204;6.568;2022-08-19T12:27:59;13.18;;;8.90;;
53533;SDS011;39421;53.204;6.568;2022-08-19T12:30:25;10.02;;;8.13;;
53533;SDS011;39421;53.204;6.568;2022-08-19T12:32:52;11.90;;;8.60;;
53533;SDS011;39421;53.204;6.568;2022-08-19T12:35:17;10.35;;;8.40;;
53533;SDS011;39421;53.204;6.568;2022-08-19T12:37:45;11.10;;;7.95;;
53533;SDS011;39421;53.204;6.568;2022-08-19T12:40:13;9.60;;;8.00;;
53533;SDS011;39421;53.204;6.568;2022-08-19T12:42:40;10.98;;;8.52;;
53533;SDS011;39421;53.204;6.568;2022-08-19T12:45:11;12.07;;;9.23;;
53533;SDS011;39421;53.204;6.568;2022-08-19T12:47:38;13.15;;;9.02;;
53533;SDS011;39421;53.204;6.568;2022-08-19T12:50:04;12.13;;;9.57;;
53533;SDS011;39421;53.204;6.568;2022-08-19T12:52:34;12.77;;;9.65;;
53533;SDS011;39421;53.204;6.568;2022-08-19T12:55:03;10.50;;;9.17;;
53533;SDS011;39421;53.204;6.568;2022-08-19T12:57:30;10.60;;;8.23;;
53533;SDS011;39421;53.204;6.568;2022-08-19T13:00:09;8.25;;;6.85;;
53533;SDS011;39421;53.204;6.568;2022-08-19T13:02:46;9.60;;;7.47;;
53533;SDS011;39421;53.204;6.568;2022-08-19T13:05:15;9.98;;;7.25;;
53533;SDS011;39421;53.204;6.568;2022-08-19T13:07:44;12.23;;;8.45;;
53533;SDS011;39421;53.204;6.568;2022-08-19T13:10:15;8.73;;;7.45;;
53533;SDS011;39421;53.204;6.568;2022-08-19T13:12:43;9.80;;;8.30;;
53533;SDS011;39421;53.204;6.568;2022-08-19T13:15:11;9.88;;;7.60;;
53533;SDS011;39421;53.204;6.568;2022-08-19T13:17:37;10.20;;;7.93;;
53533;SDS011;39421;53.204;6.568;2022-08-19T13:20:05;10.50;;;8.27;;
53533;SDS011;39421;53.204;6.568;2022-08-19T13:22:33;10.82;;;8.05;;
53533;SDS011;39421;53.204;6.568;2022-08-19T13:25:00;13.43;;;7.83;;
53533;SDS011;39421;53.204;6.568;2022-08-19T13:27:26;12.10;;;7.70;;
53533;SDS011;39421;53.204;6.568;2022-08-19T13:29:52;15.70;;;10.03;;
53533;SDS011;39421;53.204;6.568;2022-08-19T13:32:36;13.27;;;9.45;;
53533;SDS011;39421;53.204;6.568;2022-08-19T13:35:21;13.57;;;9.30;;
53533;SDS011;39421;53.204;6.568;2022-08-19T13:37:46;12.48;;;9.40;;
53533;SDS011;39421;53.204;6.568;2022-08-19T13:40:16;11.18;;;8.35;;
53533;SDS011;39421;53.204;6.568;2022-08-19T13:42:48;9.77;;;7.60;;
53533;SDS011;39421;53.204;6.568;2022-08-19T13:45:17;8.75;;;6.50;;
53533;SDS011;39421;53.204;6.568;2022-08-19T13:47:46;8.13;;;6.28;;
53533;SDS011;39421;53.204;6.568;2022-08-19T13:50:14;6.47;;;5.57;;
53533;SDS011;39421;53.204;6.568;2022-08-19T13:52:42;9.13;;;6.35;;
53533;SDS011;39421;53.204;6.568;2022-08-19T13:55:08;6.57;;;5.80;;
53533;SDS011;39421;53.204;6.568;2022-08-19T13:57:36;7.53;;;5.43;;
53533;SDS011;39421;53.204;6.568;2022-08-19T14:00:05;5.93;;;5.13;;
53533;SDS011;39421;53.204;6.568;2022-08-19T14:02:35;7.90;;;6.00;;
53533;SDS011;39421;53.204;6.568;2022-08-19T14:05:02;9.00;;;6.20;;
53533;SDS011;39421;53.204;6.568;2022-08-19T14:07:29;7.35;;;5.85;;
53533;SDS011;39421;53.204;6.568;2022-08-19T14:09:55;6.47;;;5.60;;
53533;SDS011;39421;53.204;6.568;2022-08-19T14:12:21;9.73;;;5.80;;
53533;SDS011;39421;53.204;6.568;2022-08-19T14:14:47;7.65;;;5.63;;
53533;SDS011;39421;53.204;6.568;2022-08-19T14:17:12;8.00;;;6.07;;
53533;SDS011;39421;53.204;6.568;2022-08-19T14:19:38;13.77;;;7.30;;
53533;SDS011;39421;53.204;6.568;2022-08-19T14:22:04;9.30;;;6.82;;
53533;SDS011;39421;53.204;6.568;2022-08-19T14:24:30;9.80;;;6.65;;
53533;SDS011;39421;53.204;6.568;2022-08-19T14:26:57;9.48;;;7.22;;
53533;SDS011;39421;53.204;6.568;2022-08-19T14:29:24;10.13;;;7.27;;
53533;SDS011;39421;53.204;6.568;2022-08-19T14:31:50;10.02;;;8.13;;
53533;SDS011;39421;53.204;6.568;2022-08-19T14:34:16;12.00;;;8.02;;
53533;SDS011;39421;53.204;6.568;2022-08-19T14:36:42;10.60;;;8.00;;
53533;SDS011;39421;53.204;6.568;2022-08-19T14:39:08;11.82;;;7.90;;
53533;SDS011;39421;53.204;6.568;2022-08-19T14:41:34;9.75;;;6.63;;
53533;SDS011;39421;53.204;6.568;2022-08-19T14:44:00;10.65;;;7.05;;
53533;SDS011;39421;53.204;6.568;2022-08-19T14:46:27;9.33;;;6.80;;
53533;SDS011;39421;53.204;6.568;2022-08-19T14:48:54;12.20;;;8.07;;
53533;SDS011;39421;53.204;6.568;2022-08-19T14:51:21;10.32;;;7.43;;
53533;SDS011;39421;53.204;6.568;2022-08-19T14:53:48;11.48;;;7.65;;
53533;SDS011;39421;53.204;6.568;2022-08-19T14:56:15;13.93;;;8.32;;
53533;SDS011;39421;53.204;6.568;2022-08-19T14:58:44;13.32;;;9.13;;